Celebrity Century — 9HJI9 — position and weather

sailwx.info

Track history (hours):
 
Tides and Currents Weather Stations Pressure Air Temp Water Temp Dewpoint Dewpoint Depression Visibility Wind Speed Wind Dir Waves Ship Positions

Celebrity Century

Last reported at 2019-Jun-15 19:52 UTC. Time now 2019-Jun-15 22:34 UTC.
Position N 38°28' E 012°21'.

Length 251 m; draft 8 m.

Type: Ship. MMSI: 249054000.

Date/timePositionNaut miles runAvg speedWind from/ knotsBaromVisibWave heightAir tempDewpointWater temp
2019-Jun-15 19:52N 38°28' E 012°21'718.6
2019-Jun-15 19:29N 38°26' E 012°30'919.0
2019-Jun-15 19:00N 38°24' E 012°41'919.0
2019-Jun-15 18:30N 38°22' E 012°53'918.8
2019-Jun-15 18:00N 38°20' E 013°05'918.4
2019-Jun-15 17:30N 38°18' E 013°16'816.8
2019-Jun-15 17:00N 38°13' E 013°24'611.0
2019-Jun-15 16:30N 38°07' E 013°23'1 2.2
2019-Jun-15 16:00N 38°08' E 013°22'0 0.0
2019-Jun-15 15:30N 38°08' E 013°22'0 0.0
2019-Jun-15 15:00N 38°08' E 013°22'0 0.0
2019-Jun-15 14:30N 38°08' E 013°22'0 0.0
2019-Jun-15 14:00N 38°08' E 013°22'0 0.0
2019-Jun-15 13:30N 38°08' E 013°22'0 0.0
2019-Jun-15 13:00N 38°08' E 013°22'0 0.0
2019-Jun-15 12:30N 38°08' E 013°22'0 0.0
2019-Jun-15 11:57N 38°08' E 013°22'0 0.0
2019-Jun-15 11:30N 38°08' E 013°22'0 0.0
2019-Jun-15 11:00N 38°08' E 013°22'0 0.0
2019-Jun-15 10:30N 38°08' E 013°22'0 0.0
2019-Jun-15 10:00N 38°08' E 013°22'0 0.0
2019-Jun-15 09:30N 38°08' E 013°22'0 0.0
2019-Jun-15 09:00N 38°08' E 013°22'0 0.0
2019-Jun-15 08:30N 38°08' E 013°22'0 0.0
2019-Jun-15 08:00N 38°08' E 013°22'0 0.0
2019-Jun-15 07:30N 38°08' E 013°22'0 0.0
2019-Jun-15 07:00N 38°08' E 013°22'0 0.5
2019-Jun-15 06:30N 38°08' E 013°22'2 4.5
2019-Jun-15 06:00N 38°09' E 013°25'4 8.0
2019-Jun-15 05:30N 38°13' E 013°24'815.5
2019-Jun-15 05:00N 38°16' E 013°15'917.9
2019-Jun-15 04:30N 38°16' E 013°04'917.0
2019-Jun-15 04:00N 38°15' E 012°53'917.2
2019-Jun-15 03:30N 38°14' E 012°42'817.3
2019-Jun-15 03:00N 38°13' E 012°31'11313.2
2019-Jun-14 18:29N 36°33' E 013°38'919.1
2019-Jun-14 18:00N 36°28' E 013°47'1019.3
2019-Jun-14 17:30N 36°22' E 013°57'1019.2
2019-Jun-14 17:00N 36°16' E 014°06'1019.3
2019-Jun-14 16:30N 36°10' E 014°15'1019.3
2019-Jun-14 16:00N 36°04' E 014°25'918.2
2019-Jun-14 15:30N 35°58' E 014°32'4 8.7
2019-Jun-14 15:00N 35°53' E 014°31'0 0.1
2019-Jun-14 14:29N 35°53' E 014°31'0 0.0
2019-Jun-14 13:59N 35°53' E 014°31'0 0.0
2019-Jun-14 13:29N 35°53' E 014°31'0 0.0
2019-Jun-14 12:56N 35°53' E 014°31'0 0.0
2019-Jun-14 12:26N 35°53' E 014°31'0 0.0
2019-Jun-14 11:56N 35°53' E 014°31'0 0.0
2019-Jun-14 11:26N 35°53' E 014°31'0 0.0
2019-Jun-14 10:32N 35°53' E 014°31'0 0.0
2019-Jun-14 10:26N 35°53' E 014°31'0 0.0
2019-Jun-14 09:59N 35°53' E 014°31'0 0.0
2019-Jun-14 09:29N 35°53' E 014°31'0 0.0
2019-Jun-14 08:56N 35°53' E 014°31'0 0.0
2019-Jun-14 08:26N 35°53' E 014°31'0 0.0
2019-Jun-14 07:56N 35°53' E 014°31'0 0.0
2019-Jun-14 06:14N 35°53' E 014°31'17 4.9
2019-Jun-14 02:42N 36°05' E 014°46'2 8.6
2019-Jun-14 02:30N 36°06' E 014°48'10 8.5
2019-Jun-14 01:22N 36°13' E 014°57'3 8.5
2019-Jun-14 01:00N 36°15' E 014°60'4 8.2
2019-Jun-14 00:30N 36°17' E 015°04'4 8.1
2019-Jun-13 23:58N 36°20' E 015°08'6 8.0
2019-Jun-13 23:11N 36°24' E 015°14'49 7.8
2019-Jun-13 16:56N 37°09' E 015°38'4 8.3
2019-Jun-13 16:23N 37°14' E 015°38'18 8.1
2019-Jun-13 14:12N 37°31' E 015°35'2 8.0
2019-Jun-13 14:00N 37°33' E 015°35'9 7.8
2019-Jun-13 12:49N 37°42' E 015°35'2 7.6
2019-Jun-13 12:30N 37°44' E 015°34'4 7.9
2019-Jun-13 11:59N 37°49' E 015°34'10 8.0
2019-Jun-13 10:46N 37°58' E 015°32'2 8.3
2019-Jun-13 10:30N 38°00' E 015°32'510.7
2019-Jun-13 10:00N 38°06' E 015°33'816.6
2019-Jun-13 09:30N 38°14' E 015°36'613.0
2019-Jun-13 09:00N 38°19' E 015°39'815.3
2019-Jun-13 08:30N 38°25' E 015°33'815.5
2019-Jun-13 08:00N 38°31' E 015°27'815.5
2019-Jun-13 07:30N 38°37' E 015°20'612.6
2019-Jun-13 07:00N 38°42' E 015°15'611.2
2019-Jun-13 06:30N 38°46' E 015°10'3 5.4
2019-Jun-13 06:00N 38°49' E 015°10'3 6.0
2019-Jun-13 05:27N 38°52' E 015°12'4 9.8
2019-Jun-13 05:00N 38°56' E 015°09'4710.1
2019-Jun-13 00:19N 39°38' E 014°43'3 9.9
2019-Jun-13 00:00N 39°41' E 014°41'5 9.8
2019-Jun-12 23:30N 39°45' E 014°38'5 9.9
2019-Jun-12 23:00N 39°50' E 014°35'510.0
2019-Jun-12 22:30N 39°54' E 014°32'5 9.7
2019-Jun-12 22:00N 39°59' E 014°30'5 9.5
2019-Jun-12 21:30N 40°03' E 014°27'5 9.6
2019-Jun-12 21:00N 40°07' E 014°24'5 9.7
2019-Jun-12 20:30N 40°12' E 014°21'5 9.6
2019-Jun-12 20:00N 40°16' E 014°18'510.3
2019-Jun-12 19:30N 40°21' E 014°15'510.2
2019-Jun-12 19:00N 40°25' E 014°13'4 8.9
2019-Jun-12 18:30N 40°29' E 014°10'510.4
2019-Jun-12 18:00N 40°34' E 014°09'510.6
2019-Jun-12 17:30N 40°39' E 014°12'510.5
2019-Jun-12 17:00N 40°44' E 014°15'510.2
2019-Jun-12 16:30N 40°49' E 014°17'2 3.2
2019-Jun-12 15:57N 40°50' E 014°16'0 0.0
2019-Jun-12 15:27N 40°50' E 014°16'0 0.0
2019-Jun-12 14:57N 40°50' E 014°16'0 0.0
2019-Jun-12 14:27N 40°50' E 014°16'0 0.0
2019-Jun-12 13:57N 40°50' E 014°16'0 0.0
2019-Jun-12 13:27N 40°50' E 014°16'0 0.0
2019-Jun-12 13:00N 40°50' E 014°16'0 0.0
2019-Jun-12 12:27N 40°50' E 014°16'0 0.0
2019-Jun-12 12:00N 40°50' E 014°16'0 0.0
2019-Jun-12 11:27N 40°50' E 014°16'0 0.0
2019-Jun-12 10:57N 40°50' E 014°16'0 0.0
2019-Jun-12 10:27N 40°50' E 014°16'0 0.0
2019-Jun-12 09:57N 40°50' E 014°16'0 0.0
2019-Jun-12 09:18N 40°50' E 014°16'0 0.0
2019-Jun-12 08:48N 40°50' E 014°16'0 0.0
2019-Jun-12 08:21N 40°50' E 014°16'0 0.0
2019-Jun-12 07:51N 40°50' E 014°16'0 0.0
2019-Jun-12 07:18N 40°50' E 014°16'0 0.0
2019-Jun-12 06:51N 40°50' E 014°16'0 0.0
2019-Jun-12 06:21N 40°50' E 014°16'0 0.0
2019-Jun-12 05:57N 40°50' E 014°16'0 0.0
2019-Jun-12 05:24N 40°50' E 014°16'0 0.0
2019-Jun-12 04:54N 40°50' E 014°16'0 0.0
2019-Jun-12 04:24N 40°50' E 014°16'0 0.0
2019-Jun-12 04:00N 40°50' E 014°16'1 1.1
2019-Jun-12 03:29N 40°50' E 014°16'3 6.9
2019-Jun-12 03:00N 40°47' E 014°17'815.3
2019-Jun-12 02:30N 40°40' E 014°12'1515.4
2019-Jun-12 01:30N 40°25' E 014°14'816.6
2019-Jun-12 01:00N 40°17' E 014°19'816.3
2019-Jun-12 00:30N 40°10' E 014°24'816.0
2019-Jun-12 00:00N 40°03' E 014°29'816.3
2019-Jun-11 23:30N 39°56' E 014°34'816.9
2019-Jun-11 23:00N 39°49' E 014°40'917.2
2019-Jun-11 22:30N 39°41' E 014°46'917.3
2019-Jun-11 21:59N 39°33' E 014°52'1517.4
2019-Jun-11 21:06N 39°20' E 015°01'317.5
2019-Jun-11 20:56N 39°17' E 015°02'817.6
2019-Jun-11 20:30N 39°10' E 015°06'1217.7
2019-Jun-11 19:51N 38°60' E 015°14'617.9
2019-Jun-11 19:30N 38°55' E 015°17'918.1
2019-Jun-11 19:00N 38°47' E 015°23'1019.2
2019-Jun-11 18:30N 38°39' E 015°29'1019.2
2019-Jun-11 18:00N 38°30' E 015°35'1019.1
2019-Jun-11 17:30N 38°21' E 015°40'713.1
2019-Jun-11 17:00N 38°15' E 015°39'510.4
2019-Jun-11 16:30N 38°12' E 015°34'0 0.2
2019-Jun-11 15:55N 38°12' E 015°33'0 0.0
2019-Jun-11 15:28N 38°12' E 015°33'0 0.0
2019-Jun-11 14:58N 38°12' E 015°33'0 0.0
2019-Jun-11 14:28N 38°12' E 015°33'0 0.0
2019-Jun-11 13:55N 38°12' E 015°33'0 0.0
2019-Jun-11 13:13N 38°12' E 015°33'0 0.0
2019-Jun-11 12:58N 38°12' E 015°33'0 0.0
2019-Jun-11 12:19N 38°12' E 015°33'0 0.0
2019-Jun-11 11:55N 38°12' E 015°33'0 0.0
2019-Jun-11 11:28N 38°12' E 015°33'0 0.0
2019-Jun-11 10:58N 38°12' E 015°33'0 0.0
2019-Jun-11 10:28N 38°12' E 015°33'0 0.0
2019-Jun-11 09:58N 38°12' E 015°33'0 0.5
2019-Jun-11 09:30N 38°12' E 015°34'2 5.1
2019-Jun-11 09:00N 38°11' E 015°36'612.7
2019-Jun-11 08:30N 38°04' E 015°36'918.5
2019-Jun-11 08:01N 37°55' E 015°37'918.6
2019-Jun-11 07:31N 37°51' E 015°48'351 9.1
2019-Jun-09 17:03N 43°34' E 014°07'118.8
2019-Jun-09 17:00N 43°35' E 014°05'1018.7
2019-Jun-09 16:27N 43°40' E 013°53'817.7
2019-Jun-09 15:58N 43°41' E 013°42'816.9
2019-Jun-09 15:30N 43°39' E 013°31'2 3.5
2019-Jun-09 15:00N 43°37' E 013°30'0 0.0
2019-Jun-09 14:14N 43°37' E 013°30'0 0.0
2019-Jun-09 13:53N 43°37' E 013°30'0 0.0
2019-Jun-09 13:29N 43°37' E 013°30'0 0.0
2019-Jun-09 12:59N 43°37' E 013°30'0 0.0
2019-Jun-09 11:53N 43°37' E 013°30'0 0.0
2019-Jun-09 10:53N 43°37' E 013°30'0 0.0
2019-Jun-09 10:29N 43°37' E 013°30'0 0.0
2019-Jun-09 09:59N 43°37' E 013°30'0 0.0
2019-Jun-09 09:26N 43°37' E 013°30'0 0.0
2019-Jun-09 08:20N 43°37' E 013°30'0 0.0
2019-Jun-09 07:59N 43°37' E 013°30'0 0.0
2019-Jun-09 07:29N 43°37' E 013°30'0 0.0
2019-Jun-09 06:56N 43°37' E 013°30'0 0.0
2019-Jun-09 06:17N 43°37' E 013°30'0 0.0
2019-Jun-09 05:59N 43°37' E 013°30'0 0.4
2019-Jun-09 05:30N 43°37' E 013°30'2 3.7
2019-Jun-09 05:00N 43°39' E 013°30'2013.3
2019-Jun-09 03:32N 43°54' E 013°47'016.0
2019-Jun-09 03:31N 43°54' E 013°47'815.8
2019-Jun-09 03:00N 43°59' E 013°38'815.7
2019-Jun-09 02:30N 44°03' E 013°29'815.9
2019-Jun-09 02:00N 44°08' E 013°20'917.3
2019-Jun-09 01:31N 44°14' E 013°12'1019.1
2019-Jun-09 01:00N 44°23' E 013°08'919.1
2019-Jun-09 00:31N 44°32' E 013°04'918.9
2019-Jun-09 00:01N 44°41' E 012°59'918.8
2019-Jun-08 23:31N 44°50' E 012°54'918.8
2019-Jun-08 23:01N 44°58' E 012°48'918.8
2019-Jun-08 22:31N 45°06' E 012°41'918.3
2019-Jun-08 22:01N 45°12' E 012°31'917.6
2019-Jun-08 21:31N 45°21' E 012°30'510.8
2019-Jun-08 21:00N 45°25' E 012°26'3 5.7
2019-Jun-08 20:30N 45°25' E 012°22'2 4.5
2019-Jun-08 20:00N 45°26' E 012°19'0 0.8
2019-Jun-08 19:30N 45°26' E 012°18'0 0.0
2019-Jun-08 19:00N 45°26' E 012°18'0 0.0
2019-Jun-08 18:30N 45°26' E 012°18'0 0.0
2019-Jun-08 18:00N 45°26' E 012°18'0 0.0
2019-Jun-08 17:27N 45°26' E 012°18'0 0.0
2019-Jun-08 17:00N 45°26' E 012°18'0 0.0
2019-Jun-08 16:30N 45°26' E 012°18'0 0.0
2019-Jun-08 16:00N 45°26' E 012°18'0 0.0
2019-Jun-08 15:30N 45°26' E 012°18'0 0.0
2019-Jun-08 15:00N 45°26' E 012°18'0 0.0
2019-Jun-08 14:30N 45°26' E 012°18'0 0.0
2019-Jun-08 14:00N 45°26' E 012°18'0 0.0
2019-Jun-08 13:30N 45°26' E 012°18'0 0.0
2019-Jun-08 13:00N 45°26' E 012°18'0 0.0
2019-Jun-08 12:30N 45°26' E 012°18'0 0.0
2019-Jun-08 12:00N 45°26' E 012°18'0 0.0
2019-Jun-08 11:30N 45°26' E 012°18'0 0.0
2019-Jun-08 11:00N 45°26' E 012°18'0 0.0
2019-Jun-08 10:30N 45°26' E 012°18'0 0.0
2019-Jun-08 10:00N 45°26' E 012°18'0 0.0
2019-Jun-08 09:30N 45°26' E 012°18'0 0.0
2019-Jun-08 09:00N 45°26' E 012°18'0 0.0
2019-Jun-08 08:30N 45°26' E 012°18'0 0.0
2019-Jun-08 08:00N 45°26' E 012°18'0 0.0
2019-Jun-08 07:30N 45°26' E 012°18'0 0.0
2019-Jun-08 07:00N 45°26' E 012°18'0 0.0
2019-Jun-08 06:30N 45°26' E 012°18'0 0.0
2019-Jun-08 06:00N 45°26' E 012°18'0 0.0
2019-Jun-08 05:30N 45°26' E 012°18'0 0.0
2019-Jun-08 05:00N 45°26' E 012°18'0 0.0
2019-Jun-08 04:30N 45°26' E 012°18'0 0.3
2019-Jun-08 04:00N 45°26' E 012°18'2 4.2
2019-Jun-08 03:30N 45°26' E 012°21'2 4.6
2019-Jun-08 03:00N 45°26' E 012°24'3 6.9
2019-Jun-08 02:30N 45°24' E 012°29'3 6.2
2019-Jun-08 02:00N 45°22' E 012°32'5 9.8
2019-Jun-08 01:30N 45°17' E 012°33'510.9
2019-Jun-08 01:01N 45°13' E 012°39'815.1
2019-Jun-08 00:31N 45°09' E 012°47'714.9
2019-Jun-08 00:01N 45°02' E 012°52'714.5
2019-Jun-07 23:30N 44°55' E 012°56'815.9
2019-Jun-07 23:00N 44°48' E 012°60'816.2
2019-Jun-07 22:30N 44°40' E 013°03'816.8
2019-Jun-07 22:00N 44°32' E 013°07'1019.1
2019-Jun-07 21:30N 44°23' E 013°11'919.0
2019-Jun-07 21:00N 44°15' E 013°18'1019.5
2019-Jun-07 20:30N 44°09' E 013°28'1019.3
2019-Jun-07 20:00N 44°04' E 013°39'1019.3
2019-Jun-07 19:30N 43°58' E 013°51'1019.3
2019-Jun-07 19:00N 43°54' E 014°03'1019.1
2019-Jun-07 18:30N 43°51' E 014°15'919.2
2019-Jun-07 18:00N 43°48' E 014°28'1019.1
2019-Jun-07 17:30N 43°45' E 014°40'1019.4
2019-Jun-07 17:00N 43°42' E 014°53'1019.1
2019-Jun-07 16:30N 43°40' E 015°06'1419.0
2019-Jun-07 15:45N 43°35' E 015°25'518.7
2019-Jun-07 15:30N 43°34' E 015°31'919.0
2019-Jun-07 15:00N 43°31' E 015°43'122 6.7
2019-Jun-06 20:48N 41°49' E 017°15'19215.3
2019-Jun-06 08:15N 38°37' E 017°14'7518.4
2019-Jun-06 04:12N 37°48' E 016°03'419.2
2019-Jun-06 04:01N 37°48' E 015°58'1018.9
2019-Jun-06 03:30N 37°48' E 015°46'918.7
2019-Jun-06 03:01N 37°54' E 015°38'1018.5
2019-Jun-06 02:28N 38°04' E 015°34'920.2
2019-Jun-06 02:01N 38°13' E 015°36'815.4
2019-Jun-06 01:31N 38°20' E 015°39'918.1
2019-Jun-06 01:01N 38°28' E 015°34'918.5
2019-Jun-06 00:31N 38°37' E 015°28'918.7
2019-Jun-06 00:01N 38°45' E 015°23'919.0
2019-Jun-05 23:31N 38°53' E 015°17'1218.8
2019-Jun-05 22:51N 39°04' E 015°09'1018.5
2019-Jun-05 22:18N 39°13' E 015°03'  
Track history (hours):
 
Tides and Currents Weather Stations Pressure Air Temp Water Temp Dewpoint Dewpoint Depression Visibility Wind Speed Wind Dir Waves Ship Positions

Celebrity Century

Last reported at 2019-Jun-15 19:52 UTC. Time now 2019-Jun-15 22:34 UTC.
Position N 38°28' E 012°21'.

Length 251 m; draft 8 m.

Type: Ship. MMSI: 249054000.

Date/timePositionNaut miles runAvg speedWind from/ knotsBaromVisibWave heightAir tempDewpointWater temp
2019-Jun-15 19:52N 38°28' E 012°21'718.6
2019-Jun-15 19:29N 38°26' E 012°30'919.0
2019-Jun-15 19:00N 38°24' E 012°41'919.0
2019-Jun-15 18:30N 38°22' E 012°53'918.8
2019-Jun-15 18:00N 38°20' E 013°05'918.4
2019-Jun-15 17:30N 38°18' E 013°16'816.8
2019-Jun-15 17:00N 38°13' E 013°24'611.0
2019-Jun-15 16:30N 38°07' E 013°23'1 2.2
2019-Jun-15 16:00N 38°08' E 013°22'0 0.0
2019-Jun-15 15:30N 38°08' E 013°22'0 0.0
2019-Jun-15 15:00N 38°08' E 013°22'0 0.0
2019-Jun-15 14:30N 38°08' E 013°22'0 0.0
2019-Jun-15 14:00N 38°08' E 013°22'0 0.0
2019-Jun-15 13:30N 38°08' E 013°22'0 0.0
2019-Jun-15 13:00N 38°08' E 013°22'0 0.0
2019-Jun-15 12:30N 38°08' E 013°22'0 0.0
2019-Jun-15 11:57N 38°08' E 013°22'0 0.0
2019-Jun-15 11:30N 38°08' E 013°22'0 0.0
2019-Jun-15 11:00N 38°08' E 013°22'0 0.0
2019-Jun-15 10:30N 38°08' E 013°22'0 0.0
2019-Jun-15 10:00N 38°08' E 013°22'0 0.0
2019-Jun-15 09:30N 38°08' E 013°22'0 0.0
2019-Jun-15 09:00N 38°08' E 013°22'0 0.0
2019-Jun-15 08:30N 38°08' E 013°22'0 0.0
2019-Jun-15 08:00N 38°08' E 013°22'0 0.0
2019-Jun-15 07:30N 38°08' E 013°22'0 0.0
2019-Jun-15 07:00N 38°08' E 013°22'0 0.5
2019-Jun-15 06:30N 38°08' E 013°22'2 4.5
2019-Jun-15 06:00N 38°09' E 013°25'4 8.0
2019-Jun-15 05:30N 38°13' E 013°24'815.5
2019-Jun-15 05:00N 38°16' E 013°15'917.9
2019-Jun-15 04:30N 38°16' E 013°04'917.0
2019-Jun-15 04:00N 38°15' E 012°53'917.2
2019-Jun-15 03:30N 38°14' E 012°42'817.3
2019-Jun-15 03:00N 38°13' E 012°31'11313.2
2019-Jun-14 18:29N 36°33' E 013°38'919.1
2019-Jun-14 18:00N 36°28' E 013°47'1019.3
2019-Jun-14 17:30N 36°22' E 013°57'1019.2
2019-Jun-14 17:00N 36°16' E 014°06'1019.3
2019-Jun-14 16:30N 36°10' E 014°15'1019.3
2019-Jun-14 16:00N 36°04' E 014°25'918.2
2019-Jun-14 15:30N 35°58' E 014°32'4 8.7
2019-Jun-14 15:00N 35°53' E 014°31'0 0.1
2019-Jun-14 14:29N 35°53' E 014°31'0 0.0
2019-Jun-14 13:59N 35°53' E 014°31'0 0.0
2019-Jun-14 13:29N 35°53' E 014°31'0 0.0
2019-Jun-14 12:56N 35°53' E 014°31'0 0.0
2019-Jun-14 12:26N 35°53' E 014°31'0 0.0
2019-Jun-14 11:56N 35°53' E 014°31'0 0.0
2019-Jun-14 11:26N 35°53' E 014°31'0 0.0
2019-Jun-14 10:32N 35°53' E 014°31'0 0.0
2019-Jun-14 10:26N 35°53' E 014°31'0 0.0
2019-Jun-14 09:59N 35°53' E 014°31'0 0.0
2019-Jun-14 09:29N 35°53' E 014°31'0 0.0
2019-Jun-14 08:56N 35°53' E 014°31'0 0.0
2019-Jun-14 08:26N 35°53' E 014°31'0 0.0
2019-Jun-14 07:56N 35°53' E 014°31'0 0.0
2019-Jun-14 06:14N 35°53' E 014°31'17 4.9
2019-Jun-14 02:42N 36°05' E 014°46'2 8.6
2019-Jun-14 02:30N 36°06' E 014°48'10 8.5
2019-Jun-14 01:22N 36°13' E 014°57'3 8.5
2019-Jun-14 01:00N 36°15' E 014°60'4 8.2
2019-Jun-14 00:30N 36°17' E 015°04'4 8.1
2019-Jun-13 23:58N 36°20' E 015°08'6 8.0
2019-Jun-13 23:11N 36°24' E 015°14'49 7.8
2019-Jun-13 16:56N 37°09' E 015°38'4 8.3
2019-Jun-13 16:23N 37°14' E 015°38'18 8.1
2019-Jun-13 14:12N 37°31' E 015°35'2 8.0
2019-Jun-13 14:00N 37°33' E 015°35'9 7.8
2019-Jun-13 12:49N 37°42' E 015°35'2 7.6
2019-Jun-13 12:30N 37°44' E 015°34'4 7.9
2019-Jun-13 11:59N 37°49' E 015°34'10 8.0
2019-Jun-13 10:46N 37°58' E 015°32'2 8.3
2019-Jun-13 10:30N 38°00' E 015°32'510.7
2019-Jun-13 10:00N 38°06' E 015°33'816.6
2019-Jun-13 09:30N 38°14' E 015°36'613.0
2019-Jun-13 09:00N 38°19' E 015°39'815.3
2019-Jun-13 08:30N 38°25' E 015°33'815.5
2019-Jun-13 08:00N 38°31' E 015°27'815.5
2019-Jun-13 07:30N 38°37' E 015°20'612.6
2019-Jun-13 07:00N 38°42' E 015°15'611.2
2019-Jun-13 06:30N 38°46' E 015°10'3 5.4
2019-Jun-13 06:00N 38°49' E 015°10'3 6.0
2019-Jun-13 05:27N 38°52' E 015°12'4 9.8
2019-Jun-13 05:00N 38°56' E 015°09'4710.1
2019-Jun-13 00:19N 39°38' E 014°43'3 9.9
2019-Jun-13 00:00N 39°41' E 014°41'5 9.8
2019-Jun-12 23:30N 39°45' E 014°38'5 9.9
2019-Jun-12 23:00N 39°50' E 014°35'510.0
2019-Jun-12 22:30N 39°54' E 014°32'5 9.7
2019-Jun-12 22:00N 39°59' E 014°30'5 9.5
2019-Jun-12 21:30N 40°03' E 014°27'5 9.6
2019-Jun-12 21:00N 40°07' E 014°24'5 9.7
2019-Jun-12 20:30N 40°12' E 014°21'5 9.6
2019-Jun-12 20:00N 40°16' E 014°18'510.3
2019-Jun-12 19:30N 40°21' E 014°15'510.2
2019-Jun-12 19:00N 40°25' E 014°13'4 8.9
2019-Jun-12 18:30N 40°29' E 014°10'510.4
2019-Jun-12 18:00N 40°34' E 014°09'510.6
2019-Jun-12 17:30N 40°39' E 014°12'510.5
2019-Jun-12 17:00N 40°44' E 014°15'510.2
2019-Jun-12 16:30N 40°49' E 014°17'2 3.2
2019-Jun-12 15:57N 40°50' E 014°16'0 0.0
2019-Jun-12 15:27N 40°50' E 014°16'0 0.0
2019-Jun-12 14:57N 40°50' E 014°16'0 0.0
2019-Jun-12 14:27N 40°50' E 014°16'0 0.0
2019-Jun-12 13:57N 40°50' E 014°16'0 0.0
2019-Jun-12 13:27N 40°50' E 014°16'0 0.0
2019-Jun-12 13:00N 40°50' E 014°16'0 0.0
2019-Jun-12 12:27N 40°50' E 014°16'0 0.0
2019-Jun-12 12:00N 40°50' E 014°16'0 0.0
2019-Jun-12 11:27N 40°50' E 014°16'0 0.0
2019-Jun-12 10:57N 40°50' E 014°16'0 0.0
2019-Jun-12 10:27N 40°50' E 014°16'0 0.0
2019-Jun-12 09:57N 40°50' E 014°16'0 0.0
2019-Jun-12 09:18N 40°50' E 014°16'0 0.0
2019-Jun-12 08:48N 40°50' E 014°16'0 0.0
2019-Jun-12 08:21N 40°50' E 014°16'0 0.0
2019-Jun-12 07:51N 40°50' E 014°16'0 0.0
2019-Jun-12 07:18N 40°50' E 014°16'0 0.0
2019-Jun-12 06:51N 40°50' E 014°16'0 0.0
2019-Jun-12 06:21N 40°50' E 014°16'0 0.0
2019-Jun-12 05:57N 40°50' E 014°16'0 0.0
2019-Jun-12 05:24N 40°50' E 014°16'0 0.0
2019-Jun-12 04:54N 40°50' E 014°16'0 0.0
2019-Jun-12 04:24N 40°50' E 014°16'0 0.0
2019-Jun-12 04:00N 40°50' E 014°16'1 1.1
2019-Jun-12 03:29N 40°50' E 014°16'3 6.9
2019-Jun-12 03:00N 40°47' E 014°17'815.3
2019-Jun-12 02:30N 40°40' E 014°12'1515.4
2019-Jun-12 01:30N 40°25' E 014°14'816.6
2019-Jun-12 01:00N 40°17' E 014°19'816.3
2019-Jun-12 00:30N 40°10' E 014°24'816.0
2019-Jun-12 00:00N 40°03' E 014°29'816.3
2019-Jun-11 23:30N 39°56' E 014°34'816.9
2019-Jun-11 23:00N 39°49' E 014°40'917.2
2019-Jun-11 22:30N 39°41' E 014°46'917.3
2019-Jun-11 21:59N 39°33' E 014°52'1517.4
2019-Jun-11 21:06N 39°20' E 015°01'317.5
2019-Jun-11 20:56N 39°17' E 015°02'817.6
2019-Jun-11 20:30N 39°10' E 015°06'1217.7
2019-Jun-11 19:51N 38°60' E 015°14'617.9
2019-Jun-11 19:30N 38°55' E 015°17'918.1
2019-Jun-11 19:00N 38°47' E 015°23'1019.2
2019-Jun-11 18:30N 38°39' E 015°29'1019.2
2019-Jun-11 18:00N 38°30' E 015°35'1019.1
2019-Jun-11 17:30N 38°21' E 015°40'713.1
2019-Jun-11 17:00N 38°15' E 015°39'510.4
2019-Jun-11 16:30N 38°12' E 015°34'0 0.2
2019-Jun-11 15:55N 38°12' E 015°33'0 0.0
2019-Jun-11 15:28N 38°12' E 015°33'0 0.0
2019-Jun-11 14:58N 38°12' E 015°33'0 0.0
2019-Jun-11 14:28N 38°12' E 015°33'0 0.0
2019-Jun-11 13:55N 38°12' E 015°33'0 0.0
2019-Jun-11 13:13N 38°12' E 015°33'0 0.0
2019-Jun-11 12:58N 38°12' E 015°33'0 0.0
2019-Jun-11 12:19N 38°12' E 015°33'0 0.0
2019-Jun-11 11:55N 38°12' E 015°33'0 0.0
2019-Jun-11 11:28N 38°12' E 015°33'0 0.0
2019-Jun-11 10:58N 38°12' E 015°33'0 0.0
2019-Jun-11 10:28N 38°12' E 015°33'0 0.0
2019-Jun-11 09:58N 38°12' E 015°33'0 0.5
2019-Jun-11 09:30N 38°12' E 015°34'2 5.1
2019-Jun-11 09:00N 38°11' E 015°36'612.7
2019-Jun-11 08:30N 38°04' E 015°36'918.5
2019-Jun-11 08:01N 37°55' E 015°37'918.6
2019-Jun-11 07:31N 37°51' E 015°48'351 9.1
2019-Jun-09 17:03N 43°34' E 014°07'118.8
2019-Jun-09 17:00N 43°35' E 014°05'1018.7
2019-Jun-09 16:27N 43°40' E 013°53'817.7
2019-Jun-09 15:58N 43°41' E 013°42'816.9
2019-Jun-09 15:30N 43°39' E 013°31'2 3.5
2019-Jun-09 15:00N 43°37' E 013°30'0 0.0
2019-Jun-09 14:14N 43°37' E 013°30'0 0.0
2019-Jun-09 13:53N 43°37' E 013°30'0 0.0
2019-Jun-09 13:29N 43°37' E 013°30'0 0.0
2019-Jun-09 12:59N 43°37' E 013°30'0 0.0
2019-Jun-09 11:53N 43°37' E 013°30'0 0.0
2019-Jun-09 10:53N 43°37' E 013°30'0 0.0
2019-Jun-09 10:29N 43°37' E 013°30'0 0.0
2019-Jun-09 09:59N 43°37' E 013°30'0 0.0
2019-Jun-09 09:26N 43°37' E 013°30'0 0.0
2019-Jun-09 08:20N 43°37' E 013°30'0 0.0
2019-Jun-09 07:59N 43°37' E 013°30'0 0.0
2019-Jun-09 07:29N 43°37' E 013°30'0 0.0
2019-Jun-09 06:56N 43°37' E 013°30'0 0.0
2019-Jun-09 06:17N 43°37' E 013°30'0 0.0
2019-Jun-09 05:59N 43°37' E 013°30'0 0.4
2019-Jun-09 05:30N 43°37' E 013°30'2 3.7
2019-Jun-09 05:00N 43°39' E 013°30'2013.3
2019-Jun-09 03:32N 43°54' E 013°47'016.0
2019-Jun-09 03:31N 43°54' E 013°47'815.8
2019-Jun-09 03:00N 43°59' E 013°38'815.7
2019-Jun-09 02:30N 44°03' E 013°29'815.9
2019-Jun-09 02:00N 44°08' E 013°20'917.3
2019-Jun-09 01:31N 44°14' E 013°12'1019.1
2019-Jun-09 01:00N 44°23' E 013°08'919.1
2019-Jun-09 00:31N 44°32' E 013°04'918.9
2019-Jun-09 00:01N 44°41' E 012°59'918.8
2019-Jun-08 23:31N 44°50' E 012°54'918.8
2019-Jun-08 23:01N 44°58' E 012°48'918.8
2019-Jun-08 22:31N 45°06' E 012°41'918.3
2019-Jun-08 22:01N 45°12' E 012°31'917.6
2019-Jun-08 21:31N 45°21' E 012°30'510.8
2019-Jun-08 21:00N 45°25' E 012°26'3 5.7
2019-Jun-08 20:30N 45°25' E 012°22'2 4.5
2019-Jun-08 20:00N 45°26' E 012°19'0 0.8
2019-Jun-08 19:30N 45°26' E 012°18'0 0.0
2019-Jun-08 19:00N 45°26' E 012°18'0 0.0
2019-Jun-08 18:30N 45°26' E 012°18'0 0.0
2019-Jun-08 18:00N 45°26' E 012°18'0 0.0
2019-Jun-08 17:27N 45°26' E 012°18'0 0.0
2019-Jun-08 17:00N 45°26' E 012°18'0 0.0
2019-Jun-08 16:30N 45°26' E 012°18'0 0.0
2019-Jun-08 16:00N 45°26' E 012°18'0 0.0
2019-Jun-08 15:30N 45°26' E 012°18'0 0.0
2019-Jun-08 15:00N 45°26' E 012°18'0 0.0
2019-Jun-08 14:30N 45°26' E 012°18'0 0.0
2019-Jun-08 14:00N 45°26' E 012°18'0 0.0
2019-Jun-08 13:30N 45°26' E 012°18'0 0.0
2019-Jun-08 13:00N 45°26' E 012°18'0 0.0
2019-Jun-08 12:30N 45°26' E 012°18'0 0.0
2019-Jun-08 12:00N 45°26' E 012°18'0 0.0
2019-Jun-08 11:30N 45°26' E 012°18'0 0.0
2019-Jun-08 11:00N 45°26' E 012°18'0 0.0
2019-Jun-08 10:30N 45°26' E 012°18'0 0.0
2019-Jun-08 10:00N 45°26' E 012°18'0 0.0
2019-Jun-08 09:30N 45°26' E 012°18'0 0.0
2019-Jun-08 09:00N 45°26' E 012°18'0 0.0
2019-Jun-08 08:30N 45°26' E 012°18'0 0.0
2019-Jun-08 08:00N 45°26' E 012°18'0 0.0
2019-Jun-08 07:30N 45°26' E 012°18'0 0.0
2019-Jun-08 07:00N 45°26' E 012°18'0 0.0
2019-Jun-08 06:30N 45°26' E 012°18'0 0.0
2019-Jun-08 06:00N 45°26' E 012°18'0 0.0
2019-Jun-08 05:30N 45°26' E 012°18'0 0.0
2019-Jun-08 05:00N 45°26' E 012°18'0 0.0
2019-Jun-08 04:30N 45°26' E 012°18'0 0.3
2019-Jun-08 04:00N 45°26' E 012°18'2 4.2
2019-Jun-08 03:30N 45°26' E 012°21'2 4.6
2019-Jun-08 03:00N 45°26' E 012°24'3 6.9
2019-Jun-08 02:30N 45°24' E 012°29'3 6.2
2019-Jun-08 02:00N 45°22' E 012°32'5 9.8
2019-Jun-08 01:30N 45°17' E 012°33'510.9
2019-Jun-08 01:01N 45°13' E 012°39'815.1
2019-Jun-08 00:31N 45°09' E 012°47'714.9
2019-Jun-08 00:01N 45°02' E 012°52'714.5
2019-Jun-07 23:30N 44°55' E 012°56'815.9
2019-Jun-07 23:00N 44°48' E 012°60'816.2
2019-Jun-07 22:30N 44°40' E 013°03'816.8
2019-Jun-07 22:00N 44°32' E 013°07'1019.1
2019-Jun-07 21:30N 44°23' E 013°11'919.0
2019-Jun-07 21:00N 44°15' E 013°18'1019.5
2019-Jun-07 20:30N 44°09' E 013°28'1019.3
2019-Jun-07 20:00N 44°04' E 013°39'1019.3
2019-Jun-07 19:30N 43°58' E 013°51'1019.3
2019-Jun-07 19:00N 43°54' E 014°03'1019.1
2019-Jun-07 18:30N 43°51' E 014°15'919.2
2019-Jun-07 18:00N 43°48' E 014°28'1019.1
2019-Jun-07 17:30N 43°45' E 014°40'1019.4
2019-Jun-07 17:00N 43°42' E 014°53'1019.1
2019-Jun-07 16:30N 43°40' E 015°06'1419.0
2019-Jun-07 15:45N 43°35' E 015°25'518.7
2019-Jun-07 15:30N 43°34' E 015°31'919.0
2019-Jun-07 15:00N 43°31' E 015°43'122 6.7
2019-Jun-06 20:48N 41°49' E 017°15'19215.3
2019-Jun-06 08:15N 38°37' E 017°14'7518.4
2019-Jun-06 04:12N 37°48' E 016°03'419.2
2019-Jun-06 04:01N 37°48' E 015°58'1018.9
2019-Jun-06 03:30N 37°48' E 015°46'918.7
2019-Jun-06 03:01N 37°54' E 015°38'1018.5
2019-Jun-06 02:28N 38°04' E 015°34'920.2
2019-Jun-06 02:01N 38°13' E 015°36'815.4
2019-Jun-06 01:31N 38°20' E 015°39'918.1
2019-Jun-06 01:01N 38°28' E 015°34'918.5
2019-Jun-06 00:31N 38°37' E 015°28'918.7
2019-Jun-06 00:01N 38°45' E 015°23'919.0
2019-Jun-05 23:31N 38°53' E 015°17'1218.8
2019-Jun-05 22:51N 39°04' E 015°09'1018.5
2019-Jun-05 22:18N 39°13' E 015°03'  

Dump ship's entire track history